LEBL/BCN METAR and TAF weather

Enter ICAO airport designator
Station Type Date Time Source
LEBL METAR 2021/01/22 07:00 UTC NOAA

LEBL 220700Z 24016KT 9999 FEW040 14/10 Q1000 NOSIG


Station Type Date Time Source
LEBL Decoded METAR 2021/01/22 07:00 UTC NOAA

Barcelona / Aeropuerto, Spain (LEBL) 41-17N 002-04E 6M
Jan 22, 2021 - 02:00 AM EST / 2021.01.22 0700 UTC
Wind: from the WSW (240 degrees) at 18 MPH (16 KT):0
Visibility: greater than 7 mile(s):0
Sky conditions: mostly clear
Temperature: 57 F (14 C)
Dew Point: 50 F (10 C)
Relative Humidity: 76%
Pressure (altimeter): 29.53 in. Hg (1000 hPa)
ob: LEBL 220700Z 24016KT 9999 FEW040 14/10 Q1000 NOSIG
cycle: 7

Station Type Date Time Source
LEBL TAF 2021/01/22 06:27 UTC NOAA

TAF LEBL 220500Z 2206/2306 26018KT 9999 FEW030 TX16/2212Z TN09/2206Z
TEMPO 2206/2214 26018G30KT PROB40
TEMPO 2208/2212 27022G35KT 3000 TSRA FEW035CB BKN040
BECMG 2212/2214 30015KT
BECMG 2222/2224 VRB04KT

Example: see airport list